createdAt,value
2022-12-15T00:02:05.263Z,12.13
2022-12-15T00:04:50.467Z,12.82
2022-12-15T00:07:35.184Z,12.38
2022-12-15T00:10:20.013Z,13.55
2022-12-15T00:13:04.828Z,12.77
2022-12-15T00:15:49.729Z,11.10
2022-12-15T00:18:34.690Z,12.48
2022-12-15T00:21:19.546Z,11.93
2022-12-15T00:24:04.363Z,11.88
2022-12-15T00:26:49.542Z,13.13
2022-12-15T00:29:34.440Z,13.05
2022-12-15T00:32:19.293Z,12.57
2022-12-15T00:35:04.296Z,12.35
2022-12-15T00:37:49.055Z,13.15
2022-12-15T00:40:15.736Z,11.30
2022-12-15T00:42:42.159Z,11.38
2022-12-15T00:45:09.248Z,12.38
2022-12-15T00:47:36.393Z,12.57
2022-12-15T00:50:21.862Z,12.57
2022-12-15T00:53:06.636Z,12.00
2022-12-15T00:55:51.635Z,12.90
2022-12-15T00:58:36.394Z,11.77
2022-12-15T01:01:26.547Z,11.73
2022-12-15T01:04:12.276Z,11.80
2022-12-15T01:06:57.634Z,10.68
2022-12-15T01:09:42.542Z,12.02
2022-12-15T01:12:27.327Z,12.35
2022-12-15T01:15:12.297Z,11.68
2022-12-15T01:17:57.316Z,12.60
2022-12-15T01:20:23.747Z,11.48
2022-12-15T01:22:53.083Z,12.00
2022-12-15T01:27:47.477Z,11.32
2022-12-15T01:30:17.358Z,12.52
2022-12-15T01:32:46.161Z,12.18
2022-12-15T01:35:12.842Z,11.07
2022-12-15T01:37:39.448Z,11.27
2022-12-15T01:40:25.446Z,12.40
2022-12-15T01:42:52.747Z,11.48
2022-12-15T01:45:50.782Z,11.07
2022-12-15T01:48:40.011Z,11.60
2022-12-15T01:51:18.078Z,12.80
2022-12-15T01:54:18.161Z,12.75
2022-12-15T01:56:47.708Z,11.95
2022-12-15T01:59:19.664Z,12.13
2022-12-15T02:01:50.183Z,12.88
2022-12-15T02:04:19.515Z,12.07
2022-12-15T02:06:45.943Z,11.48
2022-12-15T02:09:12.665Z,11.45
2022-12-15T02:12:01.029Z,12.02
2022-12-15T02:14:53.781Z,12.57
2022-12-15T02:17:41.929Z,11.98
2022-12-15T02:20:14.598Z,12.45
2022-12-15T02:23:08.755Z,12.63
2022-12-15T02:26:17.089Z,12.60
2022-12-15T02:29:17.387Z,12.43
2022-12-15T02:31:52.560Z,11.95
2022-12-15T02:34:40.248Z,12.98
2022-12-15T02:37:15.823Z,12.75
2022-12-15T02:39:42.446Z,11.50
2022-12-15T02:42:12.496Z,11.93
2022-12-15T02:44:46.397Z,12.45
2022-12-15T02:47:34.055Z,11.93
2022-12-15T02:50:15.725Z,11.55
2022-12-15T02:53:00.371Z,12.55
2022-12-15T02:55:46.523Z,12.43
2022-12-15T02:58:25.166Z,13.18
2022-12-15T03:00:58.985Z,12.40
2022-12-15T03:03:27.555Z,11.38
2022-12-15T03:05:55.049Z,12.43
2022-12-15T03:08:22.204Z,12.77
2022-12-15T03:10:50.977Z,13.15
2022-12-15T03:13:17.464Z,11.70
2022-12-15T03:15:44.090Z,12.38
2022-12-15T03:18:10.569Z,12.98
2022-12-15T03:20:36.940Z,12.15
2022-12-15T03:23:03.385Z,13.05
2022-12-15T03:25:30.159Z,12.38
2022-12-15T03:27:56.854Z,12.55
2022-12-15T03:30:23.407Z,12.43
2022-12-15T03:32:49.804Z,13.73
2022-12-15T03:35:16.567Z,12.10
2022-12-15T03:37:43.056Z,12.57
2022-12-15T03:40:10.490Z,12.98
2022-12-15T03:42:48.913Z,13.35
2022-12-15T03:45:18.162Z,13.38
2022-12-15T03:47:45.296Z,13.00
2022-12-15T03:50:14.652Z,12.45
2022-12-15T03:55:07.719Z,13.18
2022-12-15T03:57:34.795Z,12.25
2022-12-15T04:00:01.476Z,12.35
2022-12-15T04:02:28.023Z,13.30
2022-12-15T04:04:54.507Z,13.05
2022-12-15T04:07:20.909Z,15.30
2022-12-15T04:09:47.356Z,13.15
2022-12-15T04:12:13.835Z,13.02
2022-12-15T04:14:42.567Z,12.07
2022-12-15T04:17:10.236Z,14.45
2022-12-15T04:19:55.822Z,13.38
2022-12-15T04:22:22.840Z,13.10
2022-12-15T04:25:07.925Z,12.95
2022-12-15T04:27:57.086Z,13.00
2022-12-15T04:30:45.255Z,13.13
2022-12-15T04:33:31.030Z,13.45
2022-12-15T04:36:16.473Z,12.98
2022-12-15T04:39:01.365Z,14.07
2022-12-15T04:41:46.757Z,11.85
2022-12-15T04:44:32.882Z,12.85
2022-12-15T04:47:17.764Z,12.68
2022-12-15T04:50:02.716Z,13.15
2022-12-15T04:52:47.514Z,12.48
2022-12-15T04:55:32.945Z,13.18
2022-12-15T04:58:23.374Z,12.20
2022-12-15T05:01:09.300Z,10.95
2022-12-15T05:03:54.638Z,12.10
2022-12-15T05:06:39.486Z,11.50
2022-12-15T05:09:24.381Z,12.77
2022-12-15T05:12:09.797Z,11.73
2022-12-15T05:14:54.512Z,12.25
2022-12-15T05:17:41.656Z,11.80
2022-12-15T05:20:27.550Z,12.10
2022-12-15T05:23:16.283Z,13.55
2022-12-15T05:26:02.087Z,12.43
2022-12-15T05:28:47.444Z,11.52
2022-12-15T05:31:32.727Z,12.93
2022-12-15T05:34:04.734Z,19.35
2022-12-15T05:36:32.092Z,19.30
2022-12-15T05:38:58.501Z,18.35
2022-12-15T05:41:25.033Z,20.55
2022-12-15T05:43:51.506Z,20.73
2022-12-15T05:46:17.940Z,22.48
2022-12-15T05:48:44.752Z,20.08
2022-12-15T05:51:12.897Z,20.75
2022-12-15T05:53:41.301Z,18.77
2022-12-15T05:56:10.605Z,17.70
2022-12-15T05:58:44.571Z,16.58
2022-12-15T06:01:14.391Z,17.85
2022-12-15T06:03:41.738Z,16.95
2022-12-15T06:06:09.719Z,15.75
2022-12-15T06:08:38.641Z,17.05
2022-12-15T06:11:05.771Z,15.45
2022-12-15T06:13:36.755Z,16.08
2022-12-15T06:16:10.488Z,16.48
2022-12-15T06:18:40.706Z,16.27
2022-12-15T06:21:10.055Z,15.48
2022-12-15T06:26:27.409Z,13.98
2022-12-15T06:28:59.152Z,14.35
2022-12-15T06:31:26.123Z,14.45
2022-12-15T06:34:00.912Z,14.43
2022-12-15T06:36:28.546Z,13.85
2022-12-15T06:38:58.063Z,14.90
2022-12-15T06:41:24.524Z,14.38
2022-12-15T06:43:52.497Z,13.95
2022-12-15T06:46:19.787Z,16.20
2022-12-15T06:48:47.034Z,13.93
2022-12-15T06:51:17.230Z,15.90
2022-12-15T06:53:53.754Z,14.77
2022-12-15T06:56:34.679Z,15.65
2022-12-15T06:59:05.698Z,14.30
2022-12-15T07:01:32.750Z,13.68
2022-12-15T07:04:02.750Z,12.95
2022-12-15T07:06:36.237Z,13.98
2022-12-15T07:09:03.968Z,13.20
2022-12-15T07:11:30.475Z,14.57
2022-12-15T07:13:56.860Z,14.98
2022-12-15T07:16:23.730Z,12.93
2022-12-15T07:18:50.529Z,13.05
2022-12-15T07:21:17.422Z,13.48
2022-12-15T07:24:00.621Z,14.38
2022-12-15T07:26:27.834Z,13.70
2022-12-15T07:28:54.745Z,13.23
2022-12-15T07:31:22.168Z,12.77
2022-12-15T07:33:48.861Z,13.68
2022-12-15T07:36:15.740Z,12.10
2022-12-15T07:38:42.585Z,12.25
2022-12-15T07:41:10.114Z,12.52
2022-12-15T07:43:37.437Z,11.95
2022-12-15T07:46:05.323Z,11.13
2022-12-15T07:48:32.336Z,11.65
2022-12-15T07:51:07.280Z,12.63
2022-12-15T07:53:36.084Z,14.07
2022-12-15T07:56:08.884Z,20.25
2022-12-15T07:58:35.724Z,16.30
2022-12-15T08:01:04.390Z,13.02
2022-12-15T08:03:31.447Z,14.32
2022-12-15T08:06:03.841Z,16.02
2022-12-15T08:08:31.368Z,12.48
2022-12-15T08:10:58.292Z,10.70
2022-12-15T08:14:00.116Z,10.55
2022-12-15T08:16:12.270Z,11.27
2022-12-15T08:18:39.610Z,11.85
2022-12-15T08:21:09.700Z,12.85
2022-12-15T08:23:37.237Z,11.82
2022-12-15T08:26:10.174Z,13.65
2022-12-15T08:28:38.214Z,13.25
2022-12-15T08:31:14.115Z,13.32
2022-12-15T08:33:40.963Z,11.68
2022-12-15T08:36:10.126Z,14.10
2022-12-15T08:38:38.617Z,14.23
2022-12-15T08:41:08.982Z,12.57
2022-12-15T08:43:35.822Z,12.25
2022-12-15T08:46:02.352Z,12.32
2022-12-15T08:48:28.787Z,12.63
2022-12-15T08:50:56.423Z,12.40
2022-12-15T08:53:31.388Z,12.23
2022-12-15T08:56:09.397Z,15.55
2022-12-15T08:58:35.982Z,13.55
2022-12-15T09:01:05.263Z,12.93
2022-12-15T09:06:12.370Z,12.98
2022-12-15T09:08:50.195Z,15.05
2022-12-15T09:11:17.437Z,14.38
2022-12-15T09:13:49.227Z,15.77
2022-12-15T09:16:17.187Z,15.68
2022-12-15T09:18:49.355Z,16.02
2022-12-15T09:21:16.787Z,15.63
2022-12-15T09:23:51.958Z,15.27
2022-12-15T09:26:20.584Z,16.63
2022-12-15T09:28:50.152Z,16.25
2022-12-15T09:31:20.815Z,17.80
2022-12-15T09:33:47.833Z,25.58
2022-12-15T09:36:14.701Z,22.75
2022-12-15T09:38:42.412Z,20.80
2022-12-15T09:41:23.017Z,16.27
2022-12-15T09:43:58.638Z,15.85
2022-12-15T09:49:19.707Z,19.95
2022-12-15T09:51:55.971Z,21.70
2022-12-15T09:54:26.698Z,24.20
2022-12-15T09:56:56.662Z,23.95
2022-12-15T09:59:34.836Z,21.27
2022-12-15T10:02:28.201Z,24.17
2022-12-15T10:05:18.994Z,19.65
2022-12-15T10:07:46.593Z,17.60
2022-12-15T10:10:49.932Z,18.13
2022-12-15T10:13:28.871Z,20.33
2022-12-15T10:16:02.949Z,18.08
2022-12-15T10:18:47.878Z,18.85
2022-12-15T10:21:22.252Z,19.92
2022-12-15T10:23:50.501Z,18.27
2022-12-15T10:26:23.274Z,18.63
2022-12-15T10:29:11.818Z,18.45
2022-12-15T10:34:48.914Z,16.98
2022-12-15T10:37:18.989Z,16.52
2022-12-15T10:42:49.314Z,16.00
2022-12-15T10:45:33.115Z,17.90
2022-12-15T10:48:02.405Z,16.33
2022-12-15T10:50:28.949Z,16.63
2022-12-15T10:52:55.725Z,16.95
2022-12-15T10:55:32.767Z,15.77
2022-12-15T10:58:01.067Z,16.80
2022-12-15T11:00:30.216Z,17.10
2022-12-15T11:02:58.068Z,18.30
2022-12-15T11:05:25.418Z,16.55
2022-12-15T11:08:13.294Z,15.20
2022-12-15T11:11:13.328Z,15.45
2022-12-15T11:13:41.018Z,14.77
2022-12-15T11:16:17.089Z,15.80
2022-12-15T11:18:58.798Z,15.48
2022-12-15T11:21:39.357Z,14.98
2022-12-15T11:24:15.717Z,15.25
2022-12-15T11:26:50.769Z,15.35
2022-12-15T11:29:23.420Z,14.50
2022-12-15T11:31:52.286Z,14.93
2022-12-15T11:34:31.192Z,14.32
2022-12-15T11:37:08.363Z,14.75
2022-12-15T11:39:56.112Z,15.90
2022-12-15T11:42:46.616Z,14.07
2022-12-15T11:45:25.970Z,14.25
2022-12-15T11:48:02.356Z,13.70
2022-12-15T11:50:53.433Z,14.13
2022-12-15T11:53:32.324Z,14.00
2022-12-15T11:56:16.247Z,13.52
2022-12-15T11:59:18.006Z,12.75
2022-12-15T12:02:02.946Z,13.50
2022-12-15T12:04:38.804Z,13.05
2022-12-15T12:07:11.171Z,14.38
2022-12-15T12:09:54.182Z,14.73
2022-12-15T12:12:40.916Z,15.13
2022-12-15T12:15:13.263Z,15.05
2022-12-15T12:17:55.122Z,14.55
2022-12-15T12:20:27.007Z,15.32
2022-12-15T12:23:03.170Z,15.38
2022-12-15T12:25:34.909Z,17.95
2022-12-15T12:28:06.798Z,20.02
2022-12-15T12:30:45.884Z,17.25
2022-12-15T12:33:40.156Z,16.75
2022-12-15T12:36:15.264Z,16.85
2022-12-15T12:38:56.069Z,16.55
2022-12-15T12:41:44.962Z,16.90
2022-12-15T12:44:25.213Z,16.70
2022-12-15T12:47:05.441Z,16.95
2022-12-15T12:49:40.701Z,16.20
2022-12-15T12:52:31.967Z,16.02
2022-12-15T12:55:14.842Z,16.52
2022-12-15T12:57:42.844Z,16.90
2022-12-15T13:00:27.363Z,16.42
2022-12-15T13:03:23.697Z,17.13
2022-12-15T13:05:56.444Z,18.05
2022-12-15T13:08:37.677Z,19.63
2022-12-15T13:11:42.276Z,20.75
2022-12-15T13:14:26.108Z,20.52
2022-12-15T13:17:25.375Z,19.30
2022-12-15T13:19:58.070Z,19.10
2022-12-15T13:22:29.306Z,17.63
2022-12-15T13:24:57.336Z,18.48
2022-12-15T13:27:42.974Z,17.38
2022-12-15T13:30:09.279Z,16.60
2022-12-15T13:32:37.205Z,17.58
2022-12-15T13:35:25.316Z,17.23
2022-12-15T13:38:03.112Z,17.35
2022-12-15T13:40:35.046Z,17.55
2022-12-15T13:43:04.464Z,17.98
2022-12-15T13:45:52.300Z,18.33
2022-12-15T13:48:33.993Z,16.83
2022-12-15T13:51:06.178Z,17.83
2022-12-15T13:53:40.662Z,16.85
2022-12-15T13:56:24.555Z,16.60
2022-12-15T13:58:59.717Z,17.00
2022-12-15T14:01:32.356Z,17.88
2022-12-15T14:04:15.757Z,19.75
2022-12-15T14:06:56.121Z,16.08
2022-12-15T14:09:28.443Z,18.33
2022-12-15T14:11:55.083Z,16.50
2022-12-15T14:14:28.258Z,16.23
2022-12-15T14:16:59.304Z,17.70
2022-12-15T14:19:26.665Z,17.38
2022-12-15T14:21:55.966Z,16.67
2022-12-15T14:24:41.363Z,17.33
2022-12-15T14:27:08.434Z,16.27
2022-12-15T14:29:34.936Z,16.83
2022-12-15T14:32:01.910Z,18.30
2022-12-15T14:34:41.712Z,19.77
2022-12-15T14:37:15.735Z,18.33
2022-12-15T14:39:46.036Z,21.52
2022-12-15T14:42:27.518Z,20.42
2022-12-15T14:44:58.071Z,19.58
2022-12-15T14:47:30.943Z,20.65
2022-12-15T14:50:01.043Z,20.55
2022-12-15T14:52:39.722Z,21.02
2022-12-15T14:55:37.011Z,20.85
2022-12-15T14:58:34.371Z,21.17
2022-12-15T15:01:02.418Z,22.02
2022-12-15T15:03:06.720Z,17.63
2022-12-15T15:03:40.927Z,18.73
2022-12-15T15:06:13.410Z,17.63
2022-12-15T15:08:49.681Z,19.38
2022-12-15T15:11:31.555Z,21.52
2022-12-15T15:14:30.212Z,22.70
2022-12-15T15:17:43.080Z,18.73
2022-12-15T15:20:22.273Z,16.60
2022-12-15T15:23:02.818Z,17.00
2022-12-15T15:25:41.240Z,17.13
2022-12-15T15:28:10.770Z,18.38
2022-12-15T15:33:17.113Z,19.02
2022-12-15T15:35:46.400Z,21.60
2022-12-15T15:40:52.859Z,19.33
2022-12-15T15:43:19.532Z,18.63
2022-12-15T15:45:47.406Z,24.08
2022-12-15T15:48:18.591Z,35.80
2022-12-15T15:50:45.141Z,34.10
2022-12-15T15:53:18.514Z,24.48
2022-12-15T15:55:46.384Z,18.92
2022-12-15T15:58:13.254Z,19.33
2022-12-15T16:00:40.185Z,20.92
2022-12-15T16:03:08.477Z,23.45
2022-12-15T16:05:35.736Z,20.17
2022-12-15T16:08:03.946Z,19.73
2022-12-15T16:10:30.658Z,19.80
2022-12-15T16:13:02.734Z,18.77
2022-12-15T16:15:34.083Z,19.08
2022-12-15T16:18:00.655Z,17.38
2022-12-15T16:20:29.763Z,19.30
2022-12-15T16:23:17.277Z,20.08
2022-12-15T16:25:50.548Z,19.48
2022-12-15T16:28:25.022Z,18.02
2022-12-15T16:30:52.326Z,21.38
2022-12-15T16:33:19.302Z,21.63
2022-12-15T16:35:48.248Z,20.25
2022-12-15T16:38:24.406Z,20.00
2022-12-15T16:40:51.539Z,19.65
2022-12-15T16:43:20.893Z,19.15
2022-12-15T16:45:50.002Z,20.20
2022-12-15T16:48:16.827Z,18.08
2022-12-15T16:50:46.922Z,20.92
2022-12-15T16:53:20.359Z,20.08
2022-12-15T16:55:48.381Z,24.70
2022-12-15T16:58:17.151Z,19.25
2022-12-15T17:00:46.935Z,25.63
2022-12-15T17:03:18.802Z,27.60
2022-12-15T17:05:49.527Z,20.52
2022-12-15T17:08:25.869Z,24.77
2022-12-15T17:10:52.422Z,34.33
2022-12-15T17:13:23.616Z,26.38
2022-12-15T17:15:50.085Z,20.08
2022-12-15T17:18:16.493Z,21.02
2022-12-15T17:20:43.105Z,25.98
2022-12-15T17:23:18.935Z,25.88
2022-12-15T17:28:39.093Z,18.83
2022-12-15T17:31:05.552Z,23.25
2022-12-15T17:33:35.025Z,22.55
2022-12-15T17:36:06.845Z,22.75
2022-12-15T17:38:33.308Z,19.58
2022-12-15T17:41:00.859Z,18.33
2022-12-15T17:43:35.170Z,20.95
2022-12-15T17:46:04.693Z,18.02
2022-12-15T17:48:31.112Z,16.42
2022-12-15T17:50:57.624Z,16.55
2022-12-15T17:53:25.037Z,17.08
2022-12-15T17:55:53.357Z,17.35
2022-12-15T17:58:22.174Z,30.67
2022-12-15T18:00:53.241Z,20.90
2022-12-15T18:03:21.318Z,26.00
2022-12-15T18:05:52.858Z,34.67
2022-12-15T18:08:21.015Z,39.85
2022-12-15T18:10:50.623Z,28.67
2022-12-15T18:13:22.072Z,33.42
2022-12-15T18:15:49.085Z,19.90
2022-12-15T18:18:17.218Z,17.13
2022-12-15T18:20:44.486Z,20.38
2022-12-15T18:23:25.642Z,25.02
2022-12-15T18:25:52.387Z,26.40
2022-12-15T18:28:29.407Z,28.63
2022-12-15T18:31:00.873Z,26.95
2022-12-15T18:33:30.132Z,16.92
2022-12-15T18:35:56.736Z,16.75
2022-12-15T18:38:25.513Z,16.48
2022-12-15T18:40:54.886Z,20.45
2022-12-15T18:45:50.201Z,16.17
2022-12-15T18:48:22.679Z,20.33
2022-12-15T18:50:52.737Z,32.03
2022-12-15T18:53:34.583Z,21.08
2022-12-15T18:56:04.231Z,17.40
2022-12-15T19:01:00.978Z,14.70
2022-12-15T19:03:28.580Z,16.08
2022-12-15T19:06:05.386Z,15.80
2022-12-15T19:08:36.011Z,16.23
2022-12-15T19:11:10.470Z,15.55
2022-12-15T19:13:38.614Z,17.27
2022-12-15T19:16:10.221Z,17.17
2022-12-15T19:18:55.307Z,16.60
2022-12-15T19:21:42.923Z,14.82
2022-12-15T19:24:44.369Z,17.15
2022-12-15T19:27:20.961Z,16.70
2022-12-15T19:29:50.998Z,16.85
2022-12-15T19:32:17.396Z,15.75
2022-12-15T19:34:44.267Z,17.58
2022-12-15T19:37:21.231Z,18.55
2022-12-15T19:39:47.832Z,18.70
2022-12-15T19:42:19.548Z,17.70
2022-12-15T19:44:45.927Z,19.55
2022-12-15T19:47:15.147Z,19.42
2022-12-15T19:49:43.162Z,21.27
2022-12-15T19:52:14.729Z,19.65
2022-12-15T19:54:42.730Z,19.23
2022-12-15T19:57:12.304Z,18.98
2022-12-15T19:59:38.778Z,17.45
2022-12-15T20:02:05.495Z,18.80
2022-12-15T20:04:33.892Z,21.42
2022-12-15T20:07:04.084Z,21.45
2022-12-15T20:09:30.539Z,19.88
2022-12-15T20:11:57.232Z,20.10
2022-12-15T20:14:24.716Z,20.70
2022-12-15T20:16:51.225Z,20.20
2022-12-15T20:19:20.281Z,19.92
2022-12-15T20:21:46.706Z,19.58
2022-12-15T20:24:19.702Z,19.65
2022-12-15T20:26:46.827Z,19.10
2022-12-15T20:29:29.588Z,18.15
2022-12-15T20:31:57.604Z,18.58
2022-12-15T20:34:24.806Z,18.27
2022-12-15T20:36:51.387Z,17.63
2022-12-15T20:39:29.215Z,16.75
2022-12-15T20:41:56.630Z,17.27
2022-12-15T20:44:24.089Z,14.60
2022-12-15T20:46:50.751Z,17.17
2022-12-15T20:49:20.066Z,16.85
2022-12-15T20:51:48.258Z,14.45
2022-12-15T20:54:17.784Z,15.35
2022-12-15T20:56:44.973Z,13.10
2022-12-15T20:59:12.020Z,12.23
2022-12-15T21:01:39.237Z,13.27
2022-12-15T21:04:22.491Z,12.48
2022-12-15T21:06:54.500Z,13.85
2022-12-15T21:09:21.899Z,12.65
2022-12-15T21:11:49.027Z,12.63
2022-12-15T21:14:22.309Z,11.40
2022-12-15T21:16:49.287Z,11.85
2022-12-15T21:19:21.211Z,12.75
2022-12-15T21:21:52.998Z,13.73
2022-12-15T21:24:24.728Z,12.38
2022-12-15T21:26:52.161Z,12.70
2022-12-15T21:29:22.676Z,12.85
2022-12-15T21:31:49.884Z,12.20
2022-12-15T21:34:16.314Z,12.20
2022-12-15T21:36:45.628Z,11.07
2022-12-15T21:42:04.577Z,11.05
2022-12-15T21:44:31.016Z,12.88
2022-12-15T21:46:57.586Z,12.10
2022-12-15T21:49:24.302Z,12.52
2022-12-15T21:51:58.518Z,12.95
2022-12-15T21:54:30.909Z,11.77
2022-12-15T21:57:00.891Z,13.30
2022-12-15T21:59:30.593Z,12.45
2022-12-15T22:01:57.279Z,13.63
2022-12-15T22:04:28.294Z,14.13
2022-12-15T22:06:54.684Z,12.65
2022-12-15T22:09:21.716Z,12.68
2022-12-15T22:11:53.770Z,13.15
2022-12-15T22:14:34.455Z,11.55
2022-12-15T22:17:10.436Z,10.57
2022-12-15T22:19:36.794Z,11.73
2022-12-15T22:22:03.209Z,10.63
2022-12-15T22:24:29.564Z,10.38
2022-12-15T22:26:55.971Z,10.98
2022-12-15T22:29:23.303Z,9.70
2022-12-15T22:31:50.627Z,10.30
2022-12-15T22:34:20.859Z,11.15
2022-12-15T22:36:48.266Z,11.27
2022-12-15T22:39:15.032Z,11.32
2022-12-15T22:41:44.745Z,11.20
2022-12-15T22:44:25.016Z,10.60
2022-12-15T22:46:53.968Z,10.35
2022-12-15T22:49:24.910Z,9.85
2022-12-15T22:51:51.322Z,10.80
2022-12-15T22:54:23.772Z,9.98
2022-12-15T22:57:05.356Z,10.50
2022-12-15T22:59:37.293Z,10.27
2022-12-15T23:02:04.004Z,10.75
2022-12-15T23:04:31.727Z,9.93
2022-12-15T23:07:03.227Z,9.35
2022-12-15T23:09:32.836Z,8.05
2022-12-15T23:11:59.239Z,7.55
2022-12-15T23:14:44.201Z,7.97
2022-12-15T23:17:12.562Z,6.88
2022-12-15T23:19:43.834Z,7.10
2022-12-15T23:22:10.680Z,6.95
2022-12-15T23:24:37.154Z,7.93
2022-12-15T23:27:06.970Z,6.82
2022-12-15T23:29:34.512Z,7.53
2022-12-15T23:32:00.881Z,7.10
2022-12-15T23:34:29.053Z,7.18
2022-12-15T23:36:55.421Z,7.38
2022-12-15T23:39:21.808Z,7.55
2022-12-15T23:41:48.189Z,7.07
2022-12-15T23:44:14.598Z,7.05
2022-12-15T23:46:41.999Z,7.38
2022-12-15T23:49:08.702Z,6.55
2022-12-15T23:51:35.076Z,8.00
2022-12-15T23:54:01.455Z,6.75
2022-12-15T23:56:27.985Z,6.70
2022-12-15T23:58:56.837Z,7.47
